Santa Paula, California
Current Conditions -  °F | °C
As of 3:55 PM on Tuesday 25 Nov 2014 (Local Time) from KCMA Reporting Station
Clear Clear  
Wind Chill: 72°   Ceiling: Unl
Heat Index: 72°   Visibility: 10mi
Dew Point: 33°   Wind: 8mph
Humidity: 24%   Direction: 250°WSW
Pressure: 30.27"   Gusts: NA
Location:  34.35°N, 119.05°W
Report Text: KCMA 252355Z 25007KT 10SM CLR 22/01 A3027 RMK AO2 SLP257 T02220006 10272 20222 57008
Loading
Personal Weather Stations






























Interactive Weather Map New forecast layout! Learn more

10-Day Weather Forecast

Advertisements
Track Severe Weather on mobile